Flight Track Log - Related Links

Times and Time Zones

All times are in EDT time to prevent confusion due to time zone crossing. See the D-AIMA flight status page for this flight to view local times or setup timezone preferences in your user account.

Time Position Orientation Groundspeed Altitude Reporting Facility
EDT Latitude Longitude Course Direction KTS MPH feet Rate Location/Type
Tue 11:25:17 AM 1.3580 103.9970 180° South 180 207 300  Level FlightAware
Tue 11:25:32 AM 1.3690 104.0020 24° Northeast 177 204 700 1,067 Climbing FlightAware
Tue 11:26:02 AM 1.3920 104.0120 23° Northeast 195 224 1,100 1,091 Climbing FlightAware
Tue 11:26:27 AM 1.4160 104.0220 23° Northeast 203 234 1,700 1,200 Climbing FlightAware
Tue 11:26:57 AM 1.4420 104.0330 23° Northeast 218 251 2,200 1,100 Climbing FlightAware
Tue 11:27:27 AM 1.4710 104.0430 19° North 226 260 2,800 982 Climbing FlightAware
Tue 11:27:52 AM 1.4970 104.0390 351° North 240 276 3,100 764 Climbing FlightAware
Tue 11:28:22 AM 1.5300 104.0260 339° North 263 303 3,500 1,067 Climbing FlightAware
Tue 11:28:37 AM 1.5470 104.0170 332° Northwest 268 308 3,900 1,800 Climbing FlightAware
Tue 11:29:02 AM 1.5730 104.0020 330° Northwest 268 308 4,700 1,800 Climbing FlightAware
Tue 11:29:17 AM 1.5890 103.9910 326° Northwest 268 308 5,100 1,733 Climbing FlightAware
Tue 11:29:47 AM 1.6170 103.9640 316° Northwest 273 314 6,000 1,600 Climbing FlightAware
Tue 11:30:17 AM 1.6430 103.9370 314° West 282 325 6,700 1,527 Climbing FlightAware
Tue 11:30:42 AM 1.6650 103.9130 313° West 287 330 7,400 1,745 Climbing FlightAware
Tue 11:31:12 AM 1.6920 103.8840 313° West 290 334 8,300 1,600 Climbing FlightAware
Tue 11:31:42 AM 1.7210 103.8550 315° West 298 343 9,000 1,500 Climbing FlightAware
Tue 11:31:52 AM 1.7300 103.8450 312° West 298 343 9,300 1,745 Climbing FlightAware
Tue 11:32:37 AM 1.7740 103.7990 314° West 300 345 10,600 1,271 Climbing FlightAware
Tue 11:33:17 AM 1.8140 103.7560 313° West 328 377 11,100 635 Climbing FlightAware
Tue 11:34:02 AM 1.8630 103.7050 314° West 360 414 11,500 375 Climbing FlightAware
Tue 11:34:37 AM 1.9010 103.6640 313° West 365 420 11,600 80 Climbing FlightAware
Tue 11:35:17 AM 1.9400 103.6220 313° West 365 420 11,600  Level FlightAware
Tue 11:36:07 AM 1.9890 103.5690 313° West 365 420 11,600 1,267 Level FlightAware
Tue 11:38:00 AM 2.1763 103.4128 320° Northwest  Level Estimated
Tue 11:39:00 AM 2.2758 103.3298 320° Northwest  Level Estimated
Tue 11:39:47 AM 2.2120 103.1830 320° Northwest 439 505 17,300  Level FlightAware
Tue 11:40:32 AM 2.2530 103.1110 300° West 446 513 17,900 776 Climbing FlightAware
Tue 11:41:12 AM 2.2970 103.0320 299° West 457 526 18,400 776 Climbing FlightAware
Tue 11:41:57 AM 2.3460 102.9470 300° West 464 534 19,000 776 Climbing FlightAware
Tue 11:42:37 AM 2.3910 102.8680 300° West 473 544 19,500 847 Climbing FlightAware
Tue 11:43:22 AM 2.4430 102.7790 300° West 476 548 20,200 918 Climbing FlightAware
Tue 11:44:02 AM 2.4850 102.7090 301° West 474 545 20,800 975 Climbing FlightAware
Tue 11:44:42 AM 2.5340 102.6370 304° West 473 544 21,500 847 Climbing FlightAware
Tue 11:45:27 AM 2.5880 102.5540 303° West 475 547 22,000 660 Climbing FlightAware
Tue 11:46:22 AM 2.6520 102.4560 303° West 478 550 22,600 632 Climbing FlightAware
Tue 11:47:02 AM 2.7040 102.3770 303° West 482 555 23,000 565 Climbing FlightAware
Tue 11:47:47 AM 2.7570 102.2970 304° West 485 558 23,400 565 Climbing FlightAware
Tue 11:48:27 AM 2.8090 102.2170 303° West 489 563 23,800 565 Climbing FlightAware
Tue 11:49:12 AM 2.8650 102.1310 303° West 491 565 24,200 565 Climbing FlightAware
Tue 11:49:52 AM 2.9110 102.0590 303° West 490 564 24,600 560 Climbing FlightAware
Tue 11:50:27 AM 2.9540 101.9860 301° West 494 568 24,900 480 Climbing FlightAware
Tue 11:51:07 AM 3.0060 101.8980 301° West 500 575 25,200 400 Climbing FlightAware
Tue 11:51:57 AM 3.0630 101.8000 300° West 505 581 25,500 400 Climbing FlightAware
Tue 11:52:37 AM 3.1090 101.7210 300° West 507 583 25,800 450 Climbing FlightAware
Tue 11:53:17 AM 3.1570 101.6370 300° West 509 586 26,100 424 Climbing FlightAware
Tue 11:54:02 AM 3.2160 101.5390 301° West 511 588 26,400 400 Climbing FlightAware
Tue 11:54:47 AM 3.3010 101.4680 320° Northwest 513 590 26,700 420 Climbing FlightAware
Tue 11:55:42 AM 3.4020 101.3860 321° Northwest 513 590 27,100 533 Climbing FlightAware
Tue 11:56:17 AM 3.4650 101.3340 321° Northwest 512 589 27,500 360 Climbing FlightAware
Tue 11:57:22 AM 3.5870 101.2350 321° Northwest 518 596 27,700 229 Climbing FlightAware
Tue 11:58:02 AM 3.6610 101.1740 321° Northwest 521 600 27,900 333 Climbing FlightAware
Tue 11:58:52 AM 3.7530 101.1000 321° Northwest 521 600 28,200 384 Climbing FlightAware
Tue 12:00:07 PM 3.8990 100.9800 321° Northwest 519 597 28,700 600 Climbing FlightAware
Tue 12:00:52 PM 3.9840 100.9110 321° Northwest 514 592 29,400 847 Climbing FlightAware
Tue 12:01:32 PM 4.0600 100.8500 321° Northwest 509 586 29,900 450 Climbing FlightAware
Tue 12:02:12 PM 4.1330 100.7920 322° Northwest 518 596 30,000 71 Climbing FlightAware
Tue 12:02:57 PM 4.2270 100.7350 329° Northwest 520 598 30,000  Level FlightAware
Tue 12:03:37 PM 4.3100 100.6920 333° Northwest 521 600 30,000  Level FlightAware
Tue 12:04:22 PM 4.3880 100.6150 315° West 520 598 30,000  Level FlightAware
Tue 12:05:02 PM 4.4560 100.5460 315° West 521 600 30,000  Level FlightAware
Tue 12:05:42 PM 4.5260 100.4760 315° West 523 602 30,000  Level FlightAware
Tue 12:06:27 PM 4.6020 100.4000 315° West 524 603 30,000  Level FlightAware
Tue 12:07:07 PM 4.6720 100.3300 315° West 524 603 30,000  Level FlightAware
Tue 12:07:52 PM 4.7480 100.2550 315° West 523 602 30,000  Level FlightAware
Tue 12:08:32 PM 4.8170 100.1860 315° West 522 601 30,000  Level FlightAware
Tue 12:09:12 PM 4.8830 100.1200 315° West 522 601 30,000  Level FlightAware
Tue 12:09:57 PM 4.9620 100.0410 315° West 521 600 30,000  Level FlightAware
Tue 12:10:37 PM 5.0320 99.9710 315° West 522 601 30,000  Level FlightAware
Tue 12:11:17 PM 5.1000 99.9030 315° West 524 603 30,000  Level FlightAware
Tue 12:12:02 PM 5.1770 99.8270 315° West 523 602 30,000  Level FlightAware
Tue 12:12:42 PM 5.2470 99.7570 315° West 524 603 30,000  Level FlightAware
Tue 12:13:22 PM 5.3140 99.6900 315° West 520 598 30,000  Level FlightAware
Tue 12:14:07 PM 5.3920 99.6120 315° West 521 600 30,000  Level FlightAware
Tue 12:14:42 PM 5.4510 99.5530 315° West 521 600 30,000  Level FlightAware
Tue 12:15:32 PM 5.5380 99.4660 315° West 520 598 30,000  Level FlightAware
Tue 12:16:12 PM 5.6060 99.3990 316° Northwest 521 600 30,000  Level FlightAware
Tue 12:16:57 PM 5.6840 99.3210 315° West 520 598 30,000  Level FlightAware
Tue 12:17:37 PM 5.7510 99.2530 315° West 519 597 30,000  Level FlightAware
Tue 12:18:17 PM 5.8180 99.1860 315° West 520 598 30,000  Level FlightAware
Tue 12:19:02 PM 5.8960 99.1080 315° West 521 600 30,000  Level FlightAware
Tue 12:19:42 PM 5.9610 99.0430 315° West 523 602 30,000  Level FlightAware
Tue 12:20:37 PM 6.0560 98.9480 315° West 524 603 30,000  Level FlightAware
Tue 12:21:37 PM 6.1530 98.8490 315° West 524 603 30,000  Level FlightAware
Tue 12:22:17 PM 6.2110 98.7890 314° West 524 603 30,000  Level FlightAware
Tue 12:22:57 PM 6.2680 98.7290 314° West 524 603 30,000  Level FlightAware
Tue 12:23:37 PM 6.3250 98.6700 314° West 524 603 30,000  Level FlightAware
Tue 12:24:17 PM 6.3820 98.6100 314° West 524 603 30,000  Level FlightAware
Tue 12:24:57 PM 6.4400 98.5500 314° West 524 603 30,000  Level FlightAware
Tue 12:25:47 PM 6.5110 98.4760 314° West 524 603 30,000  Level FlightAware
Tue 12:26:27 PM 6.5680 98.4160 314° West 524 603 30,000  Level FlightAware
Tue 12:27:07 PM 6.6260 98.3560 314° West 524 603 30,000  Level FlightAware
Tue 12:27:47 PM 6.6830 98.2970 314° West 524 603 30,000  Level FlightAware
Tue 12:28:37 PM 6.7550 98.2220 314° West 524 603 30,000  Level FlightAware
Tue 12:29:17 PM 6.8120 98.1620 314° West 524 603 30,000  Level FlightAware
Tue 12:29:57 PM 6.8690 98.1030 314° West 524 603 30,000  Level FlightAware
Tue 12:30:37 PM 6.9260 98.0430 314° West 524 603 30,000 424 Level FlightAware
Tue 12:31:22 PM 7.1820 97.8650 325° Northwest 512 589 30,600 480 Climbing FlightAware
Tue 12:32:17 PM 7.2760 97.7950 324° Northwest 514 592 30,800 126 Climbing FlightAware
Tue 12:32:57 PM 7.3400 97.7460 323° Northwest 514 592 30,800  Level FlightAware
Tue 12:33:37 PM 7.4050 97.6970 323° Northwest 514 592 30,800  Level FlightAware
Tue 12:34:17 PM 7.4700 97.6480 323° Northwest 514 592 30,800  Level FlightAware
Tue 12:35:07 PM 7.5500 97.5860 322° Northwest 514 592 30,800  Level FlightAware
Tue 12:35:47 PM 7.6150 97.5370 323° Northwest 514 592 30,800 2,314 Level FlightAware
Tue 12:36:17 PM 7.6410 97.3440 278° West 506 582 33,500 2,585 Climbing FlightAware
Tue 12:36:52 PM 7.6860 97.2820 306° West 506 582 33,600 71 Climbing FlightAware
Tue 12:37:42 PM 7.7440 97.2010 306° West 506 582 33,600  Level FlightAware
Tue 12:38:22 PM 7.7910 97.1360 306° West 506 582 33,600  Level FlightAware
Tue 12:39:02 PM 7.8380 97.0710 306° West 506 582 33,600  Level FlightAware
Tue 12:39:42 PM 7.8850 97.0060 306° West 506 582 33,600  Level FlightAware
Tue 12:40:22 PM 7.9310 96.9410 306° West 506 582 33,600  Level FlightAware
Tue 12:41:12 PM 7.9900 96.8600 306° West 506 582 33,600  Level FlightAware
Tue 12:41:52 PM 8.0370 96.7950 306° West 506 582 33,600  Level FlightAware
Tue 12:42:32 PM 8.0840 96.7300 306° West 506 582 33,600  Level FlightAware
Tue 12:43:12 PM 8.1300 96.6650 306° West 506 582 33,600  Level FlightAware
Tue 12:43:52 PM 8.1770 96.6000 306° West 506 582 33,600  Level FlightAware
Tue 12:44:32 PM 8.2240 96.5350 306° West 506 582 33,600  Level FlightAware
Tue 12:45:22 PM 8.2820 96.4530 306° West 506 582 33,600  Level FlightAware
Tue 12:46:02 PM 8.3290 96.3880 306° West 506 582 33,600 Level FlightAware
Tue 12:48:00 PM 8.5227 96.2214 320° Northwest  Level Estimated
Tue 12:49:00 PM 8.6211 96.1366 320° Northwest  Level Estimated
Tue 12:50:00 PM 8.7196 96.0518 320° Northwest  Level Estimated
Tue 12:51:00 PM 8.8180 95.9669 320° Northwest  Level Estimated
Tue 12:52:00 PM 8.9164 95.8820 320° Northwest  Level Estimated
Tue 12:53:00 PM 9.0148 95.7971 320° Northwest  Level Estimated
Tue 12:54:00 PM 9.1131 95.7120 320° Northwest  Level Estimated
Tue 12:55:00 PM 9.2115 95.6270 320° Northwest  Level Estimated
Tue 12:56:00 PM 9.3098 95.5419 320° Northwest  Level Estimated
Tue 12:57:00 PM 9.4081 95.4567 319° Northwest  Level Estimated
Tue 12:58:00 PM 9.5064 95.3715 319° Northwest  Level Estimated
Tue 12:59:00 PM 9.6046 95.2863 319° Northwest  Level Estimated
Tue 01:00:00 PM 9.7029 95.2010 319° Northwest  Level Estimated
Tue 01:01:00 PM 9.8011 95.1156 319° Northwest  Level Estimated
Tue 01:02:00 PM 9.8993 95.0302 319° Northwest  Level Estimated
Tue 01:03:00 PM 9.9974 94.9448 319° Northwest  Level Estimated
Tue 01:04:00 PM 10.0956 94.8593 319° Northwest  Level Estimated
Tue 01:05:00 PM 10.1937 94.7737 319° Northwest  Level Estimated
Tue 01:06:00 PM 10.2918 94.6881 319° Northwest  Level Estimated
Tue 01:07:00 PM 10.3899 94.6025 319° Northwest  Level Estimated
Tue 01:08:00 PM 10.4880 94.5168 319° Northwest  Level Estimated
Tue 01:09:00 PM 10.5860 94.4310 319° Northwest  Level Estimated
Tue 01:10:00 PM 10.6840 94.3452 319° Northwest  Level Estimated
Tue 01:11:00 PM 10.7820 94.2593 319° Northwest  Level Estimated
Tue 01:12:00 PM 10.8800 94.1734 319° Northwest  Level Estimated
Tue 01:13:00 PM 10.9779 94.0874 319° Northwest  Level Estimated
Tue 01:14:00 PM 11.0759 94.0013 319° Northwest  Level Estimated
Tue 01:15:00 PM 11.1738 93.9152 319° Northwest  Level Estimated
Tue 01:16:00 PM 11.2716 93.8291 319° Northwest  Level Estimated
Tue 01:17:00 PM 11.3695 93.7429 319° Northwest  Level Estimated
Tue 01:18:00 PM 11.4673 93.6566 319° Northwest  Level Estimated
Tue 01:19:00 PM 11.5651 93.5702 319° Northwest  Level Estimated
Tue 01:20:00 PM 11.6629 93.4838 319° Northwest  Level Estimated
Tue 01:21:00 PM 11.7606 93.3974 319° Northwest  Level Estimated
Tue 01:22:00 PM 11.8583 93.3109 319° Northwest  Level Estimated
Tue 01:23:00 PM 11.9560 93.2243 319° Northwest  Level Estimated
Tue 01:24:00 PM 12.0537 93.1376 319° Northwest  Level Estimated
Tue 01:25:00 PM 12.1513 93.0509 319° Northwest  Level Estimated
Tue 01:26:00 PM 12.2489 92.9641 319° Northwest  Level Estimated
Tue 01:27:00 PM 12.3465 92.8773 319° Northwest  Level Estimated
Tue 01:28:00 PM 12.4441 92.7904 319° Northwest  Level Estimated
Tue 01:29:00 PM 12.5416 92.7034 319° Northwest  Level Estimated
Tue 01:30:00 PM 12.6391 92.6164 319° Northwest  Level Estimated
Tue 01:31:00 PM 12.7366 92.5293 319° Northwest  Level Estimated
Tue 01:32:00 PM 12.8340 92.4421 319° Northwest  Level Estimated
Tue 01:33:00 PM 12.9314 92.3549 319° Northwest  Level Estimated
Tue 01:34:00 PM 13.0288 92.2676 319° Northwest  Level Estimated
Tue 01:35:00 PM 13.1262 92.1802 319° Northwest  Level Estimated
Tue 01:36:00 PM 13.2235 92.0928 319° Northwest  Level Estimated
Tue 01:37:00 PM 13.3208 92.0053 319° Northwest  Level Estimated
Tue 01:38:00 PM 13.4181 91.9177 319° Northwest  Level Estimated
Tue 01:39:00 PM 13.5153 91.8301 319° Northwest  Level Estimated
Tue 01:40:00 PM 13.6125 91.7423 319° Northwest  Level Estimated
Tue 01:41:00 PM 13.7097 91.6545 319° Northwest  Level Estimated
Tue 01:42:00 PM 13.8069 91.5667 319° Northwest  Level Estimated
Tue 01:43:00 PM 13.9040 91.4787 319° Northwest  Level Estimated
Tue 01:44:00 PM 14.0011 91.3907 319° Northwest  Level Estimated
Tue 01:45:00 PM 14.0981 91.3026 319° Northwest  Level Estimated
Tue 01:46:00 PM 14.1951 91.2145 319° Northwest  Level Estimated
Tue 01:47:00 PM 14.2921 91.1262 319° Northwest  Level Estimated
Tue 01:48:00 PM 14.3891 91.0379 319° Northwest  Level Estimated
Tue 01:49:00 PM 14.4860 90.9495 319° Northwest  Level Estimated
Tue 01:50:00 PM 14.5829 90.8611 319° Northwest  Level Estimated
Tue 01:51:00 PM 14.6797 90.7725 319° Northwest  Level Estimated
Tue 01:52:00 PM 14.7766 90.6839 318° Northwest  Level Estimated
Tue 01:53:00 PM 14.8734 90.5952 318° Northwest  Level Estimated
Tue 01:54:00 PM 14.9701 90.5064 318° Northwest  Level Estimated
Tue 01:55:00 PM 15.0668 90.4175 318° Northwest  Level Estimated
Tue 01:56:00 PM 15.1635 90.3286 318° Northwest  Level Estimated
Tue 01:57:00 PM 15.2601 90.2396 318° Northwest  Level Estimated
Tue 01:58:00 PM 15.3568 90.1505 318° Northwest  Level Estimated
Tue 01:59:00 PM 15.4533 90.0613 318° Northwest  Level Estimated
Tue 02:00:00 PM 15.5499 89.9720 318° Northwest  Level Estimated
Tue 02:01:00 PM 15.6464 89.8827 318° Northwest  Level Estimated
Tue 02:02:00 PM 15.7429 89.7932 318° Northwest  Level Estimated
Tue 02:03:00 PM 15.8393 89.7037 318° Northwest  Level Estimated
Tue 02:04:00 PM 15.9357 89.6141 318° Northwest  Level Estimated
Tue 02:05:00 PM 16.0320 89.5244 318° Northwest  Level Estimated
Tue 02:06:00 PM 16.1284 89.4346 318° Northwest  Level Estimated
Tue 02:07:00 PM 16.2247 89.3447 318° Northwest  Level Estimated
Tue 02:08:00 PM 16.3209 89.2548 318° Northwest  Level Estimated
Tue 02:09:00 PM 16.4171 89.1647 318° Northwest  Level Estimated
Tue 02:10:00 PM 16.5133 89.0746 318° Northwest  Level Estimated
Tue 02:11:00 PM 16.6094 88.9843 318° Northwest  Level Estimated
Tue 02:12:00 PM 16.7055 88.8940 318° Northwest  Level Estimated
Tue 02:13:00 PM 16.8016 88.8036 318° Northwest  Level Estimated
Tue 02:14:00 PM 16.8976 88.7131 318° Northwest  Level Estimated
Tue 02:15:00 PM 16.9936 88.6225 318° Northwest  Level Estimated
Tue 02:16:00 PM 17.0895 88.5318 318° Northwest  Level Estimated
Tue 02:17:00 PM 17.1854 88.4410 318° Northwest  Level Estimated
Tue 02:18:00 PM 17.2812 88.3502 318° Northwest  Level Estimated
Tue 02:19:00 PM 17.3771 88.2592 318° Northwest  Level Estimated
Tue 02:20:00 PM 17.4728 88.1681 318° Northwest  Level Estimated
Tue 02:21:00 PM 17.5686 88.0770 318° Northwest  Level Estimated
Tue 02:22:00 PM 17.6642 87.9857 318° Northwest  Level Estimated
Tue 02:23:00 PM 17.7599 87.8944 318° Northwest  Level Estimated
Tue 02:24:00 PM 17.8555 87.8029 318° Northwest  Level Estimated
Tue 02:25:00 PM 17.9510 87.7114 318° Northwest  Level Estimated
Tue 02:26:00 PM 18.0466 87.6197 318° Northwest  Level Estimated
Tue 02:27:00 PM 18.1420 87.5280 318° Northwest  Level Estimated
Tue 02:28:00 PM 18.2375 87.4361 318° Northwest  Level Estimated
Tue 02:29:00 PM 18.3329 87.3442 318° Northwest  Level Estimated
Tue 02:30:00 PM 18.4282 87.2521 318° Northwest  Level Estimated
Tue 02:31:00 PM 18.5235 87.1600 317° Northwest  Level Estimated
Tue 02:32:00 PM 18.6188 87.0677 317° Northwest  Level Estimated
Tue 02:33:00 PM 18.7140 86.9754 317° Northwest  Level Estimated
Tue 02:34:00 PM 18.8091 86.8829 317° Northwest  Level Estimated
Tue 02:35:00 PM 18.9043 86.7903 317° Northwest  Level Estimated
Tue 02:36:00 PM 18.9993 86.6977 317° Northwest  Level Estimated
Tue 02:37:00 PM 19.0944 86.6049 317° Northwest  Level Estimated
Tue 02:38:00 PM 19.1893 86.5120 317° Northwest  Level Estimated
Tue 02:39:00 PM 19.2843 86.4190 317° Northwest  Level Estimated
Tue 02:40:00 PM 19.3792 86.3259 317° Northwest  Level Estimated
Tue 02:41:00 PM 19.4740 86.2327 317° Northwest  Level Estimated
Tue 02:42:00 PM 19.5688 86.1394 317° Northwest  Level Estimated
Tue 02:43:00 PM 19.6635 86.0460 317° Northwest  Level Estimated
Tue 02:44:00 PM 19.7582 85.9524 317° Northwest  Level Estimated
Tue 02:45:00 PM 19.8529 85.8588 317° Northwest  Level Estimated
Tue 02:46:00 PM 19.9475 85.7650 317° Northwest  Level Estimated
Tue 02:47:00 PM 20.0420 85.6711 317° Northwest  Level Estimated
Tue 02:48:00 PM 20.1365 85.5771 317° Northwest  Level Estimated
Tue 02:49:00 PM 20.2310 85.4830 317° Northwest  Level Estimated
Tue 02:50:00 PM 20.3254 85.3888 317° Northwest  Level Estimated
Tue 02:51:00 PM 20.4197 85.2945 317° Northwest  Level Estimated
Tue 02:52:00 PM 20.5140 85.2001 317° Northwest  Level Estimated
Tue 02:53:00 PM 20.6083 85.1055 317° Northwest  Level Estimated
Tue 02:54:00 PM 20.7025 85.0108 317° Northwest  Level Estimated
Tue 02:55:00 PM 20.7966 84.9160 317° Northwest  Level Estimated
Tue 02:56:00 PM 20.8907 84.8211 317° Northwest  Level Estimated
Tue 02:57:00 PM 20.9847 84.7261 317° Northwest  Level Estimated
Tue 02:58:00 PM 21.0787 84.6309 317° Northwest  Level Estimated
Tue 02:59:00 PM 21.1727 84.5357 317° Northwest  Level Estimated
Tue 03:00:00 PM 21.2665 84.4403 317° Northwest  Level Estimated
Tue 03:01:00 PM 21.3604 84.3447 317° Northwest  Level Estimated
Tue 03:02:00 PM 21.4541 84.2491 317° Northwest  Level Estimated
Tue 03:03:00 PM 21.5479 84.1534 316° Northwest  Level Estimated
Tue 03:04:00 PM 21.6415 84.0575 316° Northwest  Level Estimated
Tue 03:05:00 PM 21.7351 83.9615 316° Northwest  Level Estimated
Tue 03:06:00 PM 21.8287 83.8653 316° Northwest  Level Estimated
Tue 03:07:00 PM 21.9222 83.7691 316° Northwest  Level Estimated
Tue 03:08:00 PM 22.0156 83.6727 316° Northwest  Level Estimated
Tue 03:09:00 PM 22.1090 83.5762 316° Northwest  Level Estimated
Tue 03:10:00 PM 22.2023 83.4795 316° Northwest  Level Estimated
Tue 03:11:00 PM 22.2956 83.3828 316° Northwest  Level Estimated
Tue 03:12:00 PM 22.3888 83.2859 316° Northwest  Level Estimated
Tue 03:13:00 PM 22.4820 83.1888 316° Northwest  Level Estimated
Tue 03:14:00 PM 22.5751 83.0917 316° Northwest  Level Estimated
Tue 03:15:00 PM 22.6681 82.9944 316° Northwest  Level Estimated
Tue 03:16:00 PM 22.7611 82.8970 316° Northwest  Level Estimated
Tue 03:17:00 PM 22.8540 82.7994 316° Northwest  Level Estimated
Tue 03:18:00 PM 22.9469 82.7017 316° Northwest  Level Estimated
Tue 03:19:00 PM 23.0397 82.6039 316° Northwest  Level Estimated
Tue 03:20:00 PM 23.1324 82.5059 316° Northwest  Level Estimated
Tue 03:21:00 PM 23.2251 82.4078 316° Northwest  Level Estimated
Tue 03:22:00 PM 23.3177 82.3096 316° Northwest  Level Estimated
Tue 03:23:00 PM 23.4103 82.2112 316° Northwest  Level Estimated
Tue 03:24:00 PM 23.5028 82.1127 316° Northwest  Level Estimated
Tue 03:25:00 PM 23.5952 82.0141 316° Northwest  Level Estimated
Tue 03:26:00 PM 23.6876 81.9153 316° Northwest  Level Estimated
Tue 03:27:00 PM 23.7799 81.8164 316° Northwest  Level Estimated
Tue 03:28:00 PM 23.8721 81.7173 316° Northwest  Level Estimated
Tue 03:29:00 PM 23.9643 81.6181 315° West  Level Estimated
Tue 03:30:00 PM 24.0564 81.5188 315° West  Level Estimated
Tue 03:31:00 PM 24.1485 81.4193 315° West  Level Estimated
Tue 03:32:00 PM 24.2405 81.3197 315° West  Level Estimated
Tue 03:33:00 PM 24.3324 81.2199 315° West  Level Estimated
Tue 03:34:00 PM 24.4242 81.1200 315° West  Level Estimated
Tue 03:35:00 PM 24.5160 81.0199 315° West  Level Estimated
Tue 03:36:00 PM 24.6078 80.9197 315° West  Level Estimated
Tue 03:37:00 PM 24.6994 80.8193 315° West  Level Estimated
Tue 03:38:00 PM 24.7910 80.7188 315° West  Level Estimated
Tue 03:39:00 PM 24.8825 80.6182 315° West  Level Estimated
Tue 03:40:00 PM 24.9740 80.5174 315° West  Level Estimated
Tue 03:41:00 PM 25.0654 80.4164 315° West  Level Estimated
Tue 03:42:00 PM 25.1567 80.3153 315° West  Level Estimated
Tue 03:43:00 PM 25.2480 80.2140 315° West  Level Estimated
Tue 03:44:00 PM 25.3391 80.1126 315° West  Level Estimated
Tue 03:45:00 PM 25.4303 80.0111 315° West  Level Estimated
Tue 03:46:00 PM 25.5213 79.9093 315° West  Level Estimated
Tue 03:47:00 PM 25.6123 79.8075 315° West  Level Estimated
Tue 03:48:00 PM 25.7032 79.7055 315° West  Level Estimated
Tue 03:49:00 PM 25.7940 79.6033 315° West  Level Estimated
Tue 03:50:00 PM 25.8848 79.5009 315° West  Level Estimated
Tue 03:51:00 PM 25.9755 79.3984 315° West  Level Estimated
Tue 03:52:00 PM 26.0661 79.2958 315° West  Level Estimated
Tue 03:53:00 PM 26.1566 79.1930 314° West  Level Estimated
Tue 03:54:00 PM 26.2471 79.0900 314° West  Level Estimated
Tue 03:55:00 PM 26.3375 78.9869 314° West  Level Estimated
Tue 03:56:00 PM 26.4278 78.8836 314° West  Level Estimated
Tue 03:57:00 PM 26.5181 78.7801 314° West  Level Estimated
Tue 03:58:00 PM 26.6082 78.6765 314° West  Level Estimated
Tue 03:59:00 PM 26.6984 78.5727 314° West  Level Estimated
Tue 04:00:00 PM 26.7884 78.4688 314° West  Level Estimated
Tue 04:01:00 PM 26.8783 78.3647 314° West  Level Estimated
Tue 04:02:00 PM 26.9682 78.2604 314° West  Level Estimated
Tue 04:03:00 PM 27.0580 78.1560 314° West  Level Estimated
Tue 04:04:00 PM 27.1477 78.0513 314° West  Level Estimated
Tue 04:05:00 PM 27.2374 77.9466 314° West  Level Estimated
Tue 04:06:00 PM 27.3269 77.8416 314° West  Level Estimated
Tue 04:07:00 PM 27.4164 77.7365 314° West  Level Estimated
Tue 04:08:00 PM 27.5058 77.6312 314° West  Level Estimated
Tue 04:09:00 PM 27.5951 77.5257 314° West  Level Estimated
Tue 04:10:00 PM 27.6844 77.4201 314° West  Level Estimated
Tue 04:11:00 PM 27.7735 77.3143 314° West  Level Estimated
Tue 04:12:00 PM 27.8626 77.2083 314° West  Level Estimated
Tue 04:13:00 PM 27.9516 77.1022 314° West  Level Estimated
Tue 04:14:00 PM 28.0405 76.9958 313° West  Level Estimated
Tue 04:15:00 PM 28.1294 76.8894 313° West  Level Estimated
Tue 04:16:00 PM 28.2181 76.7827 313° West  Level Estimated
Tue 04:17:00 PM 28.3068 76.6758 313° West  Level Estimated
Tue 04:18:00 PM 28.3954 76.5688 313° West  Level Estimated
Tue 04:19:00 PM 28.4839 76.4616 313° West  Level Estimated
Tue 04:20:00 PM 28.5723 76.3542 313° West  Level Estimated
Tue 04:21:00 PM 28.6607 76.2466 313° West  Level Estimated
Tue 04:22:00 PM 28.7489 76.1389 313° West  Level Estimated
Tue 04:23:00 PM 28.8371 76.0309 313° West  Level Estimated
Tue 04:24:00 PM 28.9252 75.9228 313° West  Level Estimated
Tue 04:25:00 PM 29.0132 75.8145 313° West  Level Estimated
Tue 04:26:00 PM 29.1011 75.7060 313° West  Level Estimated
Tue 04:27:00 PM 29.1889 75.5973 313° West  Level Estimated
Tue 04:28:00 PM 29.2766 75.4885 313° West  Level Estimated
Tue 04:29:00 PM 29.3643 75.3794 313° West  Level Estimated
Tue 04:30:00 PM 29.4518 75.2702 313° West  Level Estimated
Tue 04:31:00 PM 29.5393 75.1608 313° West  Level Estimated
Tue 04:32:00 PM 29.6267 75.0512 313° West  Level Estimated
Tue 04:33:00 PM 29.7140 74.9414 312° West  Level Estimated
Tue 04:34:00 PM 29.8012 74.8314 312° West  Level Estimated
Tue 04:35:00 PM 29.8883 74.7212 312° West  Level Estimated
Tue 04:36:00 PM 29.9753 74.6108 312° West  Level Estimated
Tue 04:37:00 PM 30.0622 74.5002 312° West  Level Estimated
Tue 04:38:00 PM 30.1490 74.3895 312° West  Level Estimated
Tue 04:39:00 PM 30.2358 74.2785 312° West  Level Estimated
Tue 04:40:00 PM 30.3224 74.1674 312° West  Level Estimated
Tue 04:41:00 PM 30.4090 74.0560 312° West  Level Estimated
Tue 04:42:00 PM 30.4954 73.9445 312° West  Level Estimated
Tue 04:43:00 PM 30.5818 73.8327 312° West  Level Estimated
Tue 04:44:00 PM 30.6680 73.7207 312° West  Level Estimated
Tue 04:45:00 PM 30.7542 73.6086 312° West  Level Estimated
Tue 04:46:00 PM 30.8403 73.4962 312° West  Level Estimated
Tue 04:47:00 PM 30.9262 73.3837 312° West  Level Estimated
Tue 04:48:00 PM 31.0121 73.2710 312° West  Level Estimated
Tue 04:49:00 PM 31.0979 73.1580 312° West  Level Estimated
Tue 04:50:00 PM 31.1836 73.0448 312° West  Level Estimated
Tue 04:51:00 PM 31.2691 72.9315 311° West  Level Estimated
Tue 04:52:00 PM 31.3546 72.8179 311° West  Level Estimated
Tue 04:53:00 PM 31.4400 72.7041 311° West  Level Estimated
Tue 04:54:00 PM 31.5253 72.5901 311° West  Level Estimated
Tue 04:55:00 PM 31.6105 72.4760 311° West  Level Estimated
Tue 04:56:00 PM 31.6955 72.3615 311° West  Level Estimated
Tue 04:57:00 PM 31.7805 72.2469 311° West  Level Estimated
Tue 04:58:00 PM 31.8654 72.1321 311° West  Level Estimated
Tue 04:59:00 PM 31.9501 72.0171 311° West  Level Estimated
Tue 05:00:00 PM 32.0348 71.9018 311° West  Level Estimated
Tue 05:01:00 PM 32.1194 71.7864 311° West  Level Estimated
Tue 05:02:00 PM 32.2038 71.6707 311° West  Level Estimated
Tue 05:03:00 PM 32.2882 71.5548 311° West  Level Estimated
Tue 05:04:00 PM 32.3724 71.4387 311° West  Level Estimated
Tue 05:05:00 PM 32.4565 71.3224 311° West  Level Estimated
Tue 05:06:00 PM 32.5406 71.2059 311° West  Level Estimated
Tue 05:07:00 PM 32.6245 71.0891 310° West  Level Estimated
Tue 05:08:00 PM 32.7083 70.9721 310° West  Level Estimated
Tue 05:09:00 PM 32.7920 70.8549 310° West  Level Estimated
Tue 05:10:00 PM 32.8756 70.7375 310° West  Level Estimated
Tue 05:11:00 PM 32.9591 70.6199 310° West  Level Estimated
Tue 05:12:00 PM 33.0424 70.5020 310° West  Level Estimated
Tue 05:13:00 PM 33.1257 70.3839 310° West  Level Estimated
Tue 05:14:00 PM 33.2088 70.2656 310° West  Level Estimated
Tue 05:15:00 PM 33.2919 70.1471 310° West  Level Estimated
Tue 05:16:00 PM 33.3748 70.0283 310° West  Level Estimated
Tue 05:17:00 PM 33.4576 69.9094 310° West  Level Estimated
Tue 05:18:00 PM 33.5403 69.7902 310° West  Level Estimated
Tue 05:19:00 PM 33.6229 69.6707 310° West  Level Estimated
Tue 05:20:00 PM 33.7054 69.5510 310° West  Level Estimated
Tue 05:21:00 PM 33.7877 69.4311 310° West  Level Estimated
Tue 05:22:00 PM 33.8700 69.3110 310° West  Level Estimated
Tue 05:23:00 PM 33.9521 69.1907 309° West  Level Estimated
Tue 05:24:00 PM 34.0341 69.0701 309° West  Level Estimated
Tue 05:25:00 PM 34.1160 68.9492 309° West  Level Estimated
Tue 05:26:00 PM 34.1977 68.8282 309° West  Level Estimated
Tue 05:27:00 PM 34.2794 68.7069 309° West  Level Estimated
Tue 05:28:00 PM 34.3609 68.5854 309° West  Level Estimated
Tue 05:29:00 PM 34.4423 68.4636 309° West  Level Estimated
Tue 05:30:00 PM 34.5236 68.3416 309° West  Level Estimated
Tue 05:31:00 PM 34.6048 68.2193 309° West  Level Estimated
Tue 05:32:00 PM 34.6858 68.0969 309° West  Level Estimated
Tue 05:33:00 PM 34.7667 67.9741 309° West  Level Estimated
Tue 05:34:00 PM 34.8475 67.8512 309° West  Level Estimated
Tue 05:35:00 PM 34.9282 67.7280 309° West  Level Estimated
Tue 05:36:00 PM 35.0088 67.6045 309° West  Level Estimated
Tue 05:37:00 PM 35.0892 67.4808 308° West  Level Estimated
Tue 05:38:00 PM 35.1695 67.3569 308° West  Level Estimated
Tue 05:39:00 PM 35.2496 67.2327 308° West  Level Estimated
Tue 05:40:00 PM 35.3297 67.1083 308° West  Level Estimated
Tue 05:41:00 PM 35.4096 66.9836 308° West  Level Estimated
Tue 05:42:00 PM 35.4894 66.8587 308° West  Level Estimated
Tue 05:43:00 PM 35.5690 66.7336 308° West  Level Estimated
Tue 05:44:00 PM 35.6486 66.6081 308° West  Level Estimated
Tue 05:45:00 PM 35.7280 66.4825 308° West  Level Estimated
Tue 05:46:00 PM 35.8073 66.3566 308° West  Level Estimated
Tue 05:47:00 PM 35.8864 66.2304 308° West  Level Estimated
Tue 05:48:00 PM 35.9654 66.1040 308° West  Level Estimated
Tue 05:49:00 PM 36.0443 65.9773 308° West  Level Estimated
Tue 05:50:00 PM 36.1230 65.8504 308° West  Level Estimated
Tue 05:51:00 PM 36.2016 65.7232 307° West  Level Estimated
Tue 05:52:00 PM 36.2801 65.5958 307° West  Level Estimated
Tue 05:53:00 PM 36.3584 65.4681 307° West  Level Estimated
Tue 05:54:00 PM 36.4366 65.3401 307° West  Level Estimated
Tue 05:55:00 PM 36.5147 65.2119 307° West  Level Estimated
Tue 05:56:00 PM 36.5926 65.0835 307° West  Level Estimated
Tue 05:57:00 PM 36.6704 64.9548 307° West  Level Estimated
Tue 05:58:00 PM 36.7480 64.8258 307° West  Level Estimated
Tue 05:59:00 PM 36.8255 64.6965 307° West  Level Estimated
Tue 06:00:00 PM 36.9029 64.5670 307° West  Level Estimated
Tue 06:01:00 PM 36.9801 64.4372 307° West  Level Estimated
Tue 06:02:00 PM 37.0572 64.3072 307° West  Level Estimated
Tue 06:03:00 PM 37.1341 64.1769 307° West  Level Estimated
Tue 06:04:00 PM 37.2109 64.0464 306° West  Level Estimated
Tue 06:05:00 PM 37.2876 63.9155 306° West  Level Estimated
Tue 06:06:00 PM 37.3641 63.7844 306° West  Level Estimated
Tue 06:07:00 PM 37.4405 63.6531 306° West  Level Estimated
Tue 06:08:00 PM 37.5167 63.5215 306° West  Level Estimated
Tue 06:09:00 PM 37.5928 63.3895 306° West  Level Estimated
Tue 06:10:00 PM 37.6687 63.2574 306° West  Level Estimated
Tue 06:11:00 PM 37.7445 63.1249 306° West  Level Estimated
Tue 06:12:00 PM 37.8201 62.9922 306° West  Level Estimated
Tue 06:13:00 PM 37.8956 62.8592 306° West  Level Estimated
Tue 06:14:00 PM 37.9709 62.7260 306° West  Level Estimated
Tue 06:15:00 PM 38.0461 62.5925 306° West  Level Estimated
Tue 06:16:00 PM 38.1211 62.4587 306° West  Level Estimated
Tue 06:17:00 PM 38.1960 62.3246 305° West  Level Estimated
Tue 06:18:00 PM 38.2707 62.1902 305° West  Level Estimated
Tue 06:19:00 PM 38.3453 62.0556 305° West  Level Estimated
Tue 06:20:00 PM 38.4197 61.9207 305° West  Level Estimated
Tue 06:21:00 PM 38.4940 61.7855 305° West  Level Estimated
Tue 06:22:00 PM 38.5681 61.6500 305° West  Level Estimated
Tue 06:23:00 PM 38.6420 61.5143 305° West  Level Estimated
Tue 06:24:00 PM 38.7158 61.3783 305° West  Level Estimated
Tue 06:25:00 PM 38.7894 61.2420 305° West  Level Estimated
Tue 06:26:00 PM 38.8629 61.1054 305° West  Level Estimated
Tue 06:27:00 PM 38.9362 60.9685 305° West  Level Estimated
Tue 06:28:00 PM 39.0094 60.8314 304° West  Level Estimated
Tue 06:29:00 PM 39.0824 60.6939 304° West  Level Estimated
Tue 06:30:00 PM 39.1552 60.5562 304° West  Level Estimated
Tue 06:31:00 PM 39.2279 60.4182 304° West  Level Estimated
Tue 06:32:00 PM 39.3004 60.2799 304° West  Level Estimated
Tue 06:33:00 PM 39.3727 60.1413 304° West  Level Estimated
Tue 06:34:00 PM 39.4449 60.0025 304° West  Level Estimated
Tue 06:35:00 PM 39.5169 59.8633 304° West  Level Estimated
Tue 06:36:00 PM 39.5888 59.7239 304° West  Level Estimated
Tue 06:37:00 PM 39.6605 59.5842 304° West  Level Estimated
Tue 06:38:00 PM 39.7320 59.4441 304° West  Level Estimated
Tue 06:39:00 PM 39.8033 59.3038 304° West  Level Estimated
Tue 06:40:00 PM 39.8745 59.1632 303° West  Level Estimated
Tue 06:41:00 PM 39.9455 59.0223 303° West  Level Estimated
Tue 06:42:00 PM 40.0163 58.8812 303° West  Level Estimated
Tue 06:43:00 PM 40.0870 58.7397 303° West  Level Estimated
Tue 06:44:00 PM 40.1575 58.5979 303° West  Level Estimated
Tue 06:45:00 PM 40.2278 58.4558 303° West  Level Estimated
Tue 06:46:00 PM 40.2979 58.3135 303° West  Level Estimated
Tue 06:47:00 PM 40.3679 58.1708 303° West  Level Estimated
Tue 06:48:00 PM 40.4377 58.0279 303° West  Level Estimated
Tue 06:49:00 PM 40.5073 57.8846 303° West  Level Estimated
Tue 06:50:00 PM 40.5767 57.7411 303° West  Level Estimated
Tue 06:51:00 PM 40.6460 57.5972 302° West  Level Estimated
Tue 06:52:00 PM 40.7151 57.4531 302° West  Level Estimated
Tue 06:53:00 PM 40.7840 57.3087 302° West  Level Estimated
Tue 06:54:00 PM 40.8527 57.1639 302° West  Level Estimated
Tue 06:55:00 PM 40.9212 57.0189 302° West  Level Estimated
Tue 06:56:00 PM 40.9896 56.8735 302° West  Level Estimated
Tue 06:57:00 PM 41.0578 56.7279 302° West  Level Estimated
Tue 06:58:00 PM 41.1258 56.5819 302° West  Level Estimated
Tue 06:59:00 PM 41.1936 56.4357 302° West  Level Estimated
Tue 07:00:00 PM 41.2612 56.2891 302° West  Level Estimated
Tue 07:01:00 PM 41.3286 56.1423 301° West  Level Estimated
Tue 07:02:00 PM 41.3959 55.9951 301° West  Level Estimated
Tue 07:03:00 PM 41.4629 55.8477 301° West  Level Estimated
Tue 07:04:00 PM 41.5298 55.6999 301° West  Level Estimated
Tue 07:05:00 PM 41.5965 55.5518 301° West  Level Estimated
Tue 07:06:00 PM 41.6630 55.4035 301° West  Level Estimated
Tue 07:07:00 PM 41.7293 55.2548 301° West  Level Estimated
Tue 07:08:00 PM 41.7954 55.1058 301° West  Level Estimated
Tue 07:09:00 PM 41.8613 54.9565 301° West  Level Estimated
Tue 07:10:00 PM 41.9270 54.8069 301° West  Level Estimated
Tue 07:11:00 PM 41.9925 54.6570 300° West  Level Estimated
Tue 07:12:00 PM 42.0579 54.5067 300° West  Level Estimated
Tue 07:13:00 PM 42.1230 54.3562 300° West  Level Estimated
Tue 07:14:00 PM 42.1879 54.2054 300° West  Level Estimated
Tue 07:15:00 PM 42.2527 54.0542 300° West  Level Estimated
Tue 07:16:00 PM 42.3172 53.9028 300° West  Level Estimated
Tue 07:17:00 PM 42.3816 53.7510 300° West  Level Estimated
Tue 07:18:00 PM 42.4457 53.5989 300° West  Level Estimated
Tue 07:19:00 PM 42.5096 53.4465 300° West  Level Estimated
Tue 07:20:00 PM 42.5734 53.2938 300° West  Level Estimated
Tue 07:21:00 PM 42.6369 53.1408 299° West  Level Estimated
Tue 07:22:00 PM 42.7002 52.9875 299° West  Level Estimated
Tue 07:23:00 PM 42.7634 52.8338 299° West  Level Estimated
Tue 07:24:00 PM 42.8263 52.6799 299° West  Level Estimated
Tue 07:25:00 PM 42.8890 52.5256 299° West  Level Estimated
Tue 07:26:00 PM 42.9515 52.3710 299° West  Level Estimated
Tue 07:27:00 PM 43.0138 52.2161 299° West  Level Estimated
Tue 07:28:00 PM 43.0759 52.0609 299° West  Level Estimated
Tue 07:29:00 PM 43.1378 51.9054 299° West  Level Estimated
Tue 07:30:00 PM 43.1994 51.7495 299° West  Level Estimated
Tue 07:31:00 PM 43.2609 51.5934 298° West  Level Estimated
Tue 07:32:00 PM 43.3221 51.4369 298° West  Level Estimated
Tue 07:33:00 PM 43.3831 51.2802 298° West  Level Estimated
Tue 07:34:00 PM 43.4440 51.1231 298° West  Level Estimated
Tue 07:35:00 PM 43.5046 50.9656 298° West  Level Estimated
Tue 07:36:00 PM 43.5649 50.8079 298° West  Level Estimated
Tue 07:37:00 PM 43.6251 50.6499 298° West  Level Estimated
Tue 07:38:00 PM 43.6851 50.4915 298° West  Level Estimated
Tue 07:39:00 PM 43.7448 50.3328 298° West  Level Estimated
Tue 07:40:00 PM 43.8043 50.1738 297° West  Level Estimated
Tue 07:41:00 PM 43.8636 50.0145 297° West  Level Estimated
Tue 07:42:00 PM 43.9226 49.8549 297° West  Level Estimated
Tue 07:43:00 PM 43.9815 49.6950 297° West  Level Estimated
Tue 07:44:00 PM 44.0401 49.5347 297° West  Level Estimated
Tue 07:45:00 PM 44.0985 49.3741 297° West  Level Estimated
Tue 07:46:00 PM 44.1567 49.2132 297° West  Level Estimated
Tue 07:47:00 PM 44.2146 49.0520 297° West  Level Estimated
Tue 07:48:00 PM 44.2723 48.8905 297° West  Level Estimated
Tue 07:49:00 PM 44.3298 48.7286 296° West  Level Estimated
Tue 07:50:00 PM 44.3871 48.5665 296° West  Level Estimated
Tue 07:51:00 PM 44.4441 48.4040 296° West  Level Estimated
Tue 07:52:00 PM 44.5009 48.2412 296° West  Level Estimated
Tue 07:53:00 PM 44.5574 48.0781 296° West  Level Estimated
Tue 07:54:00 PM 44.6138 47.9146 296° West  Level Estimated
Tue 07:55:00 PM 44.6699 47.7509 296° West  Level Estimated
Tue 07:56:00 PM 44.7257 47.5868 296° West  Level Estimated
Tue 07:57:00 PM 44.7814 47.4225 296° West  Level Estimated
Tue 07:58:00 PM 44.8368 47.2578 295° West  Level Estimated
Tue 07:59:00 PM 44.8919 47.0928 295° West  Level Estimated
Tue 08:00:00 PM 44.9468 46.9274 295° West  Level Estimated
Tue 08:01:00 PM 45.0015 46.7618 295° West  Level Estimated
Tue 08:02:00 PM 45.0560 46.5958 295° West  Level Estimated
Tue 08:03:00 PM 45.1102 46.4295 295° West  Level Estimated
Tue 08:04:00 PM 45.1641 46.2630 295° West  Level Estimated
Tue 08:05:00 PM 45.2178 46.0960 295° West  Level Estimated
Tue 08:06:00 PM 45.2713 45.9288 294° West  Level Estimated
Tue 08:07:00 PM 45.3245 45.7613 294° West  Level Estimated
Tue 08:08:00 PM 45.3775 45.5934 294° West  Level Estimated
Tue 08:08:52 PM 43.6630 45.6090 294° West 494 568 36,000  Level FlightAware
Tue 08:09:00 PM 45.4302 45.4253 294° West  Level Estimated
Tue 08:09:32 PM 43.6990 45.5140 298° West 494 568 36,000  Level FlightAware
Tue 08:10:12 PM 43.7360 45.4190 298° West 494 568 36,000  Level FlightAware
Tue 08:11:07 PM 43.6630 45.6090 118° Southeast 493 567 36,000  Level FlightAware
Tue 08:12:07 PM 43.8770 45.0710 299° West 489 563 36,000  Level FlightAware
Tue 08:12:52 PM 43.9230 44.9530 298° West 489 563 36,000  Level FlightAware
Tue 08:13:32 PM 43.9680 44.8360 298° West 488 562 36,000  Level FlightAware
Tue 08:14:27 PM 44.0230 44.6940 298° West 487 560 36,000  Level FlightAware
Tue 08:15:07 PM 44.0700 44.5740 299° West 488 562 36,000  Level FlightAware
Tue 08:16:07 PM 44.1350 44.4190 300° West 489 563 36,000  Level FlightAware
Tue 08:17:02 PM 44.1970 44.2710 300° West 492 566 36,000  Level FlightAware
Tue 08:17:42 PM 44.2450 44.1570 300° West 491 565 36,000  Level FlightAware
Tue 08:18:27 PM 44.2970 44.0300 300° West 488 562 36,000  Level FlightAware
Tue 08:19:02 PM 44.3370 43.9340 300° West 487 560 36,000  Level FlightAware
Tue 08:19:52 PM 44.3900 43.8040 300° West 487 560 36,000  Level FlightAware
Tue 08:20:32 PM 44.4390 43.6840 300° West 487 560 36,000  Level FlightAware
Tue 08:21:17 PM 44.4880 43.5650 300° West 484 557 36,000  Level FlightAware
Tue 08:21:57 PM 44.5340 43.4520 300° West 482 555 36,000  Level FlightAware
Tue 08:22:32 PM 44.5700 43.3670 301° West 481 554 36,000  Level FlightAware
Tue 08:23:22 PM 44.6300 43.2250 301° West 479 551 36,000  Level FlightAware
Tue 08:24:02 PM 44.6700 43.1310 301° West 482 555 36,000  Level FlightAware
Tue 08:24:42 PM 44.7180 43.0150 300° West 484 557 36,000  Level FlightAware
Tue 08:25:27 PM 44.7720 42.8890 301° West 483 556 36,000  Level FlightAware
Tue 08:26:07 PM 44.8180 42.7870 302° West 481 554 36,000  Level FlightAware
Tue 08:26:52 PM 44.8710 42.6650 302° West 484 557 36,000  Level FlightAware
Tue 08:27:47 PM 44.9360 42.5140 301° West 490 564 36,000  Level FlightAware
Tue 08:28:22 PM 44.9710 42.4350 302° West 490 564 36,000  Level FlightAware
Tue 08:29:02 PM 45.0190 42.3220 301° West 490 564 36,000  Level FlightAware
Tue 08:29:47 PM 45.0710 42.2020 302° West 488 562 36,000  Level FlightAware
Tue 08:30:37 PM 45.1260 42.0670 300° West 487 560 36,000  Level FlightAware
Tue 08:31:17 PM 45.1670 41.9500 296° West 487 560 36,000  Level FlightAware
Tue 08:31:52 PM 45.2030 41.8470 296° West 485 558 36,000  Level FlightAware
Tue 08:32:42 PM 45.2510 41.7080 296° West 487 560 36,000  Level FlightAware
Tue 08:33:22 PM 45.2920 41.5920 297° West 489 563 36,000  Level FlightAware
Tue 08:34:02 PM 45.3330 41.4730 296° West 490 564 36,000  Level FlightAware
Tue 08:34:47 PM 45.3810 41.3500 299° West 489 563 36,000  Level FlightAware
Tue 08:35:27 PM 45.4240 41.2370 298° West 492 566 36,000  Level FlightAware
Tue 08:36:07 PM 45.4690 41.1200 299° West 493 567 36,000  Level FlightAware
Tue 08:36:47 PM 45.5130 41.0040 298° West 491 565 36,000  Level FlightAware
Tue 08:37:27 PM 45.5570 40.8880 298° West 490 564 36,000  Level FlightAware
Tue 08:38:07 PM 45.5960 40.7840 298° West 492 566 36,000  Level FlightAware
Tue 08:39:12 PM 45.6650 40.5980 298° West 493 567 36,000  Level FlightAware
Tue 08:39:57 PM 45.7170 40.4580 298° West 493 567 36,000  Level FlightAware
Tue 08:40:37 PM 45.7560 40.3530 298° West 494 568 36,000  Level FlightAware
Tue 08:41:17 PM 45.7990 40.2350 298° West 494 568 36,000  Level FlightAware
Tue 08:41:57 PM 45.8410 40.1210 298° West 496 571 36,000  Level FlightAware
Tue 08:42:37 PM 45.8800 39.9960 294° West 497 572 36,000  Level FlightAware
Tue 08:43:22 PM 45.9210 39.8590 293° West 493 567 36,000  Level FlightAware
Tue 08:44:02 PM 45.9550 39.7420 293° West 495 570 36,000  Level FlightAware
Tue 08:44:47 PM 45.9960 39.6010 293° West 497 572 36,000  Level FlightAware
Tue 08:45:27 PM 46.0330 39.4770 293° West 495 570 36,000  Level FlightAware
Tue 08:46:07 PM 46.0670 39.3590 293° West 497 572 36,000  Level FlightAware
Tue 08:46:57 PM 46.1110 39.2060 293° West 499 574 36,000  Level FlightAware
Tue 08:47:52 PM 46.1580 39.0430 293° West 503 579 36,000  Level FlightAware
Tue 08:48:32 PM 46.1940 38.9150 292° West 504 580 36,000  Level FlightAware
Tue 08:49:12 PM 46.2340 38.7920 295° West 501 577 36,000  Level FlightAware
Tue 08:49:57 PM 46.2770 38.6600 295° West 500 575 36,000  Level FlightAware
Tue 08:50:37 PM 46.3170 38.5330 295° West 499 574 36,000  Level FlightAware
Tue 08:51:17 PM 46.3560 38.4080 294° West 501 577 36,000  Level FlightAware
Tue 08:51:57 PM 46.3950 38.2830 294° West 504 580 36,000  Level FlightAware
Tue 08:52:37 PM 46.4300 38.1710 294° West 505 581 36,000  Level FlightAware
Tue 08:53:17 PM 46.4680 38.0450 294° West 505 581 36,000  Level FlightAware
Tue 08:54:02 PM 46.5110 37.9060 294° West 505 581 36,000  Level FlightAware
Tue 08:54:52 PM 46.5580 37.7550 294° West 506 582 36,000  Level FlightAware
Tue 08:55:27 PM 46.5920 37.6430 294° West 505 581 36,000  Level FlightAware
Tue 08:56:17 PM 46.6390 37.4870 294° West 504 580 36,000  Level FlightAware
Tue 08:57:12 PM 46.6940 37.3260 297° West 506 582 36,000  Level FlightAware
Tue 08:57:57 PM 46.7480 37.1800 298° West 504 580 36,000  Level FlightAware
Tue 08:58:32 PM 46.7850 37.0810 299° West 503 579 36,000  Level FlightAware
Tue 08:59:22 PM 46.8370 36.9370 298° West 505 581 36,000  Level FlightAware
Tue 09:00:02 PM 46.8820 36.8130 298° West 506 582 36,000  Level FlightAware
Tue 09:00:42 PM 46.9270 36.6900 298° West 507 583 36,000  Level FlightAware
Tue 09:01:22 PM 46.9720 36.5650 298° West 508 585 36,000  Level FlightAware
Tue 09:02:02 PM 47.0100 36.4580 298° West 511 588 36,000  Level FlightAware
Tue 09:02:47 PM 47.0700 36.2920 298° West 516 594 36,000  Level FlightAware
Tue 09:03:32 PM 47.1190 36.1520 297° West 518 596 36,000  Level FlightAware
Tue 09:04:12 PM 47.1640 36.0260 298° West 518 596 36,000  Level FlightAware
Tue 09:04:57 PM 47.2120 35.8910 298° West 519 597 36,000  Level FlightAware
Tue 09:05:37 PM 47.2570 35.7600 297° West 520 598 36,000  Level FlightAware
Tue 09:06:22 PM 47.3010 35.6230 295° West 523 602 36,000  Level FlightAware
Tue 09:07:02 PM 47.3430 35.4850 294° West 525 604 36,000  Level FlightAware
Tue 09:07:42 PM 47.3840 35.3560 295° West 525 604 36,000  Level FlightAware
Tue 09:08:22 PM 47.4240 35.2280 295° West 525 604 36,000  Level FlightAware
Tue 09:09:02 PM 47.4660 35.0920 295° West 526 605 36,000  Level FlightAware
Tue 09:09:47 PM 47.5110 34.9460 295° West 524 603 36,000  Level FlightAware
Tue 09:10:32 PM 47.5510 34.8170 295° West 518 596 36,000  Level FlightAware
Tue 09:11:07 PM 47.5750 34.7390 295° West 518 596 36,000  Level FlightAware
Tue 09:12:06 PM 47.6310 34.5520 294° West 518 596 36,000  Level FlightAware
Tue 09:12:57 PM 47.6730 34.4110 294° West 518 596 36,000  Level FlightAware
Tue 09:13:39 PM 47.7080 34.2950 294° West 518 596 36,000  Level FlightAware
Tue 09:14:57 PM 47.8130 33.9470 294° West 520 598 36,000  Level FlightAware
Tue 09:15:53 PM 47.8610 33.7840 294° West 518 596 36,000  Level FlightAware
Tue 09:16:38 PM 47.9090 33.6180 293° West 516 594 36,000  Level FlightAware
Tue 09:17:44 PM 47.9700 33.4070 293° West 520 598 36,000  Level FlightAware
Tue 09:18:24 PM 48.0080 33.2750 293° West 524 603 36,000  Level FlightAware
Tue 09:19:06 PM 48.0490 33.1330 293° West 526 605 36,000  Level FlightAware
Tue 09:19:52 PM 48.0920 32.9830 293° West 527 606 36,000  Level FlightAware
Tue 09:20:30 PM 48.1270 32.8560 292° West 527 606 36,000  Level FlightAware
Tue 09:21:15 PM 48.1620 32.7020 289° West 525 604 36,000  Level FlightAware
Tue 09:21:56 PM 48.1960 32.5560 289° West 524 603 36,000  Level FlightAware
Tue 09:22:31 PM 48.2230 32.4390 289° West 523 602 36,000  Level FlightAware
Tue 09:23:16 PM 48.2600 32.2780 289° West 525 604 36,000  Level FlightAware
Tue 09:23:57 PM 48.2830 32.1660 287° West 524 603 36,000  Level FlightAware
Tue 09:24:47 PM 48.3300 31.9670 290° West 524 603 36,000  Level FlightAware
Tue 09:25:27 PM 48.3610 31.8300 289° West 526 605 36,000  Level FlightAware
Tue 09:26:19 PM 48.3980 31.6610 288° West 524 603 36,000  Level FlightAware
Tue 09:26:59 PM 48.4230 31.5430 288° West 524 603 36,000  Level FlightAware
Tue 09:28:28 PM 48.4960 31.2070 288° West 525 604 36,000  Level FlightAware
Tue 09:29:08 PM 48.5200 31.0880 287° West 525 604 36,000  Level FlightAware
Tue 09:29:48 PM 48.5440 30.9690 287° West 525 604 36,000  Level FlightAware
Tue 09:30:33 PM 48.5880 30.7700 289° West 523 602 36,000  Level FlightAware
Tue 09:31:18 PM 48.6170 30.6270 287° West 523 602 36,000  Level FlightAware
Tue 09:31:58 PM 48.6410 30.5080 287° West 523 602 36,000  Level FlightAware
Tue 09:33:36 PM 48.7170 30.1340 287° West 524 603 36,000  Level FlightAware
Tue 09:34:16 PM 48.7400 30.0130 286° West 524 603 36,000  Level FlightAware
Tue 09:34:56 PM 48.7620 29.8930 286° West 524 603 36,000  Level FlightAware
Tue 09:35:41 PM 48.8060 29.6890 288° West 516 594 36,000  Level FlightAware
Tue 09:36:28 PM 48.8330 29.5470 286° West 516 594 36,000  Level FlightAware
Tue 09:37:08 PM 48.8630 29.3940 287° West 511 588 36,000  Level FlightAware
Tue 09:37:46 PM 48.8860 29.2740 286° West 511 588 36,000  Level FlightAware
Tue 09:38:28 PM 48.9090 29.1500 286° West 511 588 36,000  Level FlightAware
Tue 09:39:48 PM 48.9520 28.9150 286° West 511 588 36,000  Level FlightAware
Tue 09:41:50 PM 49.0450 28.4270 282° West 504 580 36,000 125 Level FlightAware
Tue 09:42:00 PM 49.0122 28.4913 282° West  Level Estimated
Tue 09:44:00 PM 49.1020 28.0083 282° West  Level Estimated
Tue 09:45:00 PM 49.1278 27.8147 282° West  Level Estimated
Tue 09:46:00 PM 49.1533 27.6209 281° West  Level Estimated
Tue 09:47:00 PM 49.1785 27.4269 281° West  Level Estimated
Tue 09:48:00 PM 49.2033 27.2327 281° West  Level Estimated
Tue 09:49:00 PM 49.2278 27.0384 281° West  Level Estimated
Tue 09:50:00 PM 49.2520 26.8438 281° West  Level Estimated
Tue 09:51:00 PM 49.2758 26.6491 281° West  Level Estimated
Tue 09:52:00 PM 49.2994 26.4541 281° West  Level Estimated
Tue 09:53:00 PM 49.3226 26.2590 280° West  Level Estimated
Tue 09:54:00 PM 49.3454 26.0637 280° West  Level Estimated
Tue 09:55:00 PM 49.3680 25.8682 280° West  Level Estimated
Tue 09:55:48 PM 49.5030 25.5430 280° West 495 570 38,000  Level FlightAware
Tue 09:56:31 PM 49.5160 25.3980 278° West 500 575 38,000  Level FlightAware
Tue 09:57:10 PM 49.5290 25.2560 278° West 501 577 38,000  Level FlightAware
Tue 09:57:51 PM 49.5410 25.1160 278° West 497 572 38,000  Level FlightAware
Tue 09:58:31 PM 49.5540 24.9760 278° West 496 571 38,000  Level FlightAware
Tue 09:59:17 PM 49.5670 24.8160 277° West 493 567 38,000  Level FlightAware
Tue 10:00:01 PM 49.5810 24.6570 278° West 494 568 38,000  Level FlightAware
Tue 10:00:31 PM 49.5890 24.5590 277° West 494 568 38,000  Level FlightAware
Tue 10:02:06 PM 49.6160 24.2270 277° West 495 570 38,000  Level FlightAware
Tue 10:02:40 PM 49.6250 24.1080 277° West 494 568 38,000  Level FlightAware
Tue 10:03:31 PM 49.6390 23.9260 277° West 492 566 38,000  Level FlightAware
Tue 10:04:13 PM 49.6510 23.7790 277° West 494 568 38,000  Level FlightAware
Tue 10:04:52 PM 49.6610 23.6430 277° West 490 564 38,000  Level FlightAware
Tue 10:05:36 PM 49.6720 23.4890 276° West 491 565 38,000  Level FlightAware
Tue 10:06:16 PM 49.6820 23.3500 276° West 491 565 38,000  Level FlightAware
Tue 10:06:49 PM 49.6900 23.2400 276° West 491 565 38,000  Level FlightAware
Tue 10:07:39 PM 49.7020 23.0660 276° West 491 565 38,000  Level FlightAware
Tue 10:08:20 PM 49.7120 22.9260 276° West 492 566 38,000  Level FlightAware
Tue 10:08:58 PM 49.7210 22.7890 276° West 488 562 38,000  Level FlightAware
Tue 10:11:00 PM 49.7539 22.3854 277° West  Level Estimated
Tue 10:12:00 PM 49.7696 22.1867 277° West  Level Estimated
Tue 10:12:28 PM 49.7670 22.0690 277° West 487 560 38,000  Level FlightAware
Tue 10:13:29 PM 49.7790 21.8610 275° West 485 558 38,000  Level FlightAware
Tue 10:14:05 PM 49.7870 21.7330 276° West 482 555 38,000  Level FlightAware
Tue 10:14:49 PM 49.7950 21.5900 275° West 479 551 38,000  Level FlightAware
Tue 10:15:32 PM 49.8040 21.4380 275° West 481 554 38,000  Level FlightAware
Tue 10:16:13 PM 49.8110 21.3080 275° West 481 554 38,000  Level FlightAware
Tue 10:18:00 PM 49.8361 20.9527 276° West  Level Estimated
Tue 10:19:00 PM 49.8497 20.7533 276° West  Level Estimated
Tue 10:19:51 PM 49.8490 20.5430 276° West 489 563 38,000  Level FlightAware
Tue 10:22:00 PM 49.8768 20.1139 276° West  Level Estimated
Tue 10:23:00 PM 49.8893 19.9141 276° West  Level Estimated
Tue 10:24:00 PM 49.9013 19.7143 275° West  Level Estimated
Tue 10:25:00 PM 49.9130 19.5143 275° West  Level Estimated
Tue 10:25:33 PM 49.8990 19.3720 275° West 476 548 38,000  Level FlightAware
Tue 10:26:06 PM 49.9030 19.2580 273° West 474 545 38,000  Level FlightAware
Tue 10:27:06 PM 49.9100 19.0550 273° West 467 537 38,000  Level FlightAware
Tue 10:28:16 PM 49.9170 18.8350 273° West 468 539 38,000  Level FlightAware
Tue 10:28:51 PM 49.9220 18.7020 273° West 469 540 38,000  Level FlightAware
Tue 10:29:24 PM 49.9250 18.5940 273° West 468 539 38,000  Level FlightAware
Tue 10:30:17 PM 49.9300 18.4130 273° West 469 540 38,000  Level FlightAware
Tue 10:30:49 PM 49.9330 18.3050 273° West 468 539 38,000  Level FlightAware
Tue 10:31:29 PM 49.9330 18.1780 270° West 470 541 38,000  Level FlightAware
Tue 10:32:50 PM 49.9390 17.9160 272° West 462 532 38,000  Level FlightAware
Tue 10:33:55 PM 49.9520 17.7000 275° West 463 533 38,000  Level FlightAware
Tue 10:34:50 PM 49.9620 17.5200 275° West 465 535 38,000  Level FlightAware
Tue 10:35:30 PM 49.9690 17.3840 275° West 466 536 38,000  Level FlightAware
Tue 10:36:30 PM 49.9800 17.1850 275° West 465 535 38,000  Level FlightAware
Tue 10:37:40 PM 49.9920 16.9590 275° West 466 536 38,000  Level FlightAware
Tue 10:38:10 PM 49.9970 16.8440 274° West 465 535 38,000  Level FlightAware
Tue 10:38:50 PM 50.0040 16.7120 275° West 466 536 38,000  Level FlightAware
Tue 10:39:30 PM 50.0100 16.5770 274° West 464 534 38,000  Level FlightAware
Tue 10:40:15 PM 50.0170 16.4310 274° West 461 531 38,000  Level FlightAware
Tue 10:40:55 PM 50.0240 16.2930 275° West 463 533 38,000  Level FlightAware
Tue 10:41:30 PM 50.0290 16.1790 274° West 460 529 38,000  Level FlightAware
Tue 10:42:15 PM 50.0350 16.0310 274° West 457 526 38,000  Level FlightAware
Tue 10:42:55 PM 50.0400 15.9030 274° West 458 527 38,000  Level FlightAware
Tue 10:43:40 PM 50.0460 15.7600 274° West 459 528 38,000  Level FlightAware
Tue 10:44:05 PM 50.0490 15.6810 273° West 458 527 38,000  Level FlightAware
Tue 10:44:45 PM 50.0550 15.5350 274° West 457 526 38,000  Level FlightAware
Tue 10:45:30 PM 50.0600 15.3910 273° West 457 526 38,000  Level FlightAware
Tue 10:46:10 PM 50.0650 15.2600 273° West 456 525 38,000  Level FlightAware
Tue 10:46:55 PM 50.0700 15.1110 273° West 449 517 38,000  Level FlightAware
Tue 10:47:35 PM 50.0750 14.9830 274° West 446 513 38,000  Level FlightAware
Tue 10:48:10 PM 50.0790 14.8710 273° West 444 511 38,000  Level FlightAware
Tue 10:48:45 PM 50.0820 14.7620 272° West 446 513 38,000  Level FlightAware
Tue 10:49:25 PM 50.0860 14.6370 273° West 450 518 38,000  Level FlightAware
Tue 10:50:10 PM 50.0900 14.4890 272° West 450 518 38,000  Level FlightAware
Tue 10:50:45 PM 50.0940 14.3720 273° West 449 517 38,000  Level FlightAware
Tue 10:51:35 PM 50.0970 14.2140 272° West 446 513 38,000  Level FlightAware
Tue 10:52:15 PM 50.0970 14.0950 270° West 445 512 38,000  Level FlightAware
Tue 10:52:55 PM 50.0970 13.9600 270° West 446 513 38,000  Level FlightAware
Tue 10:53:40 PM 50.0970 13.8200 270° West 448 516 38,000  Level FlightAware
Tue 10:54:15 PM 50.0970 13.7060 270° West 449 517 38,000  Level FlightAware
Tue 10:55:05 PM 50.0980 13.5370 271° West 457 526 38,000  Level FlightAware
Tue 10:55:45 PM 50.0970 13.4130 269° West 456 525 38,000 -424 Level FlightAware
Tue 10:56:30 PM 50.0960 13.2620 269° West 446 513 37,400 -1,129 Descending FlightAware
Tue 10:57:10 PM 50.0940 13.1360 269° West 432 497 36,400 -1,500 Descending FlightAware
Tue 10:57:50 PM 50.0930 13.0100 269° West 443 510 35,400 -1,482 Descending FlightAware
Tue 10:58:35 PM 50.0950 12.8660 271° West 461 531 34,300 -1,380 Descending FlightAware
Tue 10:59:30 PM 50.0950 12.7040 270° West 458 527 33,100 -1,453 Descending FlightAware
Tue 11:00:10 PM 50.0950 12.5550 270° West 462 532 32,000 -1,835 Descending FlightAware
Tue 11:00:55 PM 50.0950 12.4040 270° West 470 541 30,500 -1,976 Descending FlightAware
Tue 11:01:35 PM 50.0970 12.2680 271° West 467 537 29,200 -1,059 Descending FlightAware
Tue 11:02:20 PM 50.0990 12.1180 271° West 466 536 29,000 -141 Descending FlightAware
Tue 11:03:00 PM 50.1200 11.9870 284° West 464 534 29,000  Level FlightAware
Tue 11:03:40 PM 50.1400 11.8600 284° West 461 531 29,000  Level FlightAware
Tue 11:04:25 PM 50.1630 11.7120 284° West 459 528 29,000 -282 Level FlightAware
Tue 11:05:05 PM 50.1830 11.5860 284° West 450 518 28,600 -750 Descending FlightAware
Tue 11:05:45 PM 50.2010 11.4680 283° West 443 510 28,000 -988 Descending FlightAware
Tue 11:06:30 PM 50.2240 11.3200 284° West 438 504 27,200 -988 Descending FlightAware
Tue 11:07:10 PM 50.2410 11.2060 283° West 433 498 26,600 -1,129 Descending FlightAware
Tue 11:07:55 PM 50.2640 11.0590 284° West 426 490 25,600 -1,412 Descending FlightAware
Tue 11:08:35 PM 50.2810 10.9410 283° West 424 488 24,600 -1,520 Descending FlightAware
Tue 11:09:10 PM 50.2960 10.8430 284° West 420 483 23,700 -1,516 Descending FlightAware
Tue 11:10:10 PM 50.3200 10.6760 283° West 403 464 22,200 -1,556 Descending FlightAware
Tue 11:11:25 PM 50.3520 10.4620 283° West 402 463 20,200 -1,986 Descending FlightAware
Tue 11:12:35 PM 50.3800 10.2670 283° West 384 442 17,400 -2,555 Descending FlightAware
Tue 11:14:00 PM 50.4130 10.0340 283° West 377 434 13,600 -2,544 Descending FlightAware
Tue 11:14:40 PM 50.4280 9.9250 282° West 370 426 12,100 -1,200 Descending FlightAware
Tue 11:15:20 PM 50.4420 9.8230 282° West 368 423 12,000 -71 Descending FlightAware
Tue 11:16:05 PM 50.4580 9.7130 283° West 361 415 12,000  Level FlightAware
Tue 11:16:45 PM 50.4720 9.6050 282° West 359 413 12,000  Level FlightAware
Tue 11:17:00 PM 50.4720 9.5650 270° West 361 415 12,000  Level FlightAware
Tue 11:17:40 PM 50.4520 9.4610 253° West 358 412 12,000  Level FlightAware
Tue 11:18:25 PM 50.4310 9.3520 253° West 315 362 12,000 -282 Level FlightAware
Tue 11:19:05 PM 50.4150 9.2680 253° West 286 329 11,600 -525 Descending FlightAware
Tue 11:19:45 PM 50.3990 9.1910 252° West 261 300 11,300 -494 Descending FlightAware
Tue 11:20:30 PM 50.3840 9.1190 252° West 233 268 10,900 -776 Descending FlightAware
Tue 11:21:10 PM 50.3700 9.0510 252° West 224 258 10,200 -1,029 Descending FlightAware
Tue 11:21:40 PM 50.3600 9.0040 252° West 222 255 9,700 -1,100 Descending FlightAware
Tue 11:22:10 PM 50.3510 8.9590 253° West 221 254 9,100 -1,350 Descending FlightAware
Tue 11:22:20 PM 50.3480 8.9460 250° West 221 254 8,800 -1,680 Descending FlightAware
Tue 11:22:35 PM 50.3360 8.9300 220° Southwest 234 269 8,400 -1,200 Descending FlightAware
Tue 11:22:45 PM 50.3250 8.9260 193° South 239 275 8,300 -1,400 Descending FlightAware
Tue 11:23:05 PM 50.3030 8.9370 162° South 246 283 7,700 -1,600 Descending FlightAware
Tue 11:23:15 PM 50.2950 8.9500 134° Southeast 262 302 7,500 -960 Descending FlightAware
Tue 11:23:30 PM 50.2900 8.9740 108° East 260 299 7,300 -667 Descending FlightAware
Tue 11:24:00 PM 50.2920 9.0240 86° East 257 296 7,000 -327 Descending FlightAware
Tue 11:24:25 PM 50.2970 9.0730 81° East 258 297 7,000  Level FlightAware
Tue 11:24:55 PM 50.2930 9.1280 96° East 257 296 7,000  Level FlightAware
Tue 11:25:10 PM 50.2820 9.1450 135° Southeast 252 290 7,000 -800 Level FlightAware
Tue 11:25:40 PM 50.2490 9.1670 157° South 248 285 6,400 -1,200 Descending FlightAware
Tue 11:25:50 PM 50.2360 9.1700 172° South 239 275 6,200 -1,200 Descending FlightAware
Tue 11:26:05 PM 50.2210 9.1630 197° South 231 266 5,900 -1,200 Descending FlightAware
Tue 11:26:25 PM 50.2050 9.1440 217° Southwest 230 265 5,500 -1,200 Descending FlightAware
Tue 11:26:55 PM 50.1790 9.1110 219° Southwest 228 262 4,900 -1,015 Descending FlightAware
Tue 11:27:30 PM 50.1570 9.0740 227° Southwest 223 257 4,400 -923 Descending FlightAware
Tue 11:28:00 PM 50.1440 9.0270 247° West 220 253 3,900 -764 Descending FlightAware
Tue 11:28:25 PM 50.1370 8.9950 251° West 204 235 3,700 -218 Descending FlightAware
Tue 11:28:55 PM 50.1270 8.9560 248° West 172 198 3,700  Level FlightAware
Tue 11:29:25 PM 50.1190 8.9200 251° West 171 197 3,700  Level FlightAware
Tue 11:29:50 PM 50.1120 8.8920 249° West 171 197 3,700  Level FlightAware
Tue 11:30:20 PM 50.1040 8.8560 251° West 170 196 3,700 -327 Level FlightAware
Tue 11:30:45 PM 50.0970 8.8280 249° West 174 200 3,400 -873 Descending FlightAware
Tue 11:31:15 PM 50.0890 8.7930 250° West 173 199 2,900 -933 Descending FlightAware
Tue 11:31:30 PM 50.0850 8.7760 250° West 174 200 2,700 -900 Descending FlightAware
Tue 11:31:55 PM 50.0780 8.7460 250° West 171 197 2,300 -900 Descending FlightAware
Tue 11:32:10 PM 50.0740 8.7300 249° West 168 193 2,100 -800 Descending FlightAware
Tue 11:32:40 PM 50.0670 8.7000 250° West 160 184 1,700 -764 Descending FlightAware
Tue 11:33:05 PM 50.0610 8.6740 250° West 147 169 1,400 -873 Descending FlightAware
Tue 11:33:35 PM 50.0540 8.6440 250° West 138 159 900 -873 Descending FlightAware
Tue 11:34:00 PM 50.0480 8.6190 250° West 137 158 600 -655 Descending FlightAware
Tue 11:34:30 PM 50.0420 8.5950 249° West 133 153 300 -327 Descending FlightAware
Tue 11:34:55 PM 50.0370 8.5740 250° West 133 153 300  Level FlightAware
Tue 11:37:00 PM 50.0264 8.5431 242° Southwest  Level Estimated

Login

Don't have an account? Register now (free) for customized features, flight alerts, and more!